createdAt,value
2018-09-30T00:00:53.569Z,99.40
2018-09-30T00:03:22.461Z,99.10
2018-09-30T00:05:51.294Z,99.00
2018-09-30T00:08:20.046Z,98.80
2018-09-30T00:10:48.874Z,98.70
2018-09-30T00:13:17.754Z,98.70
2018-09-30T00:15:47.744Z,98.80
2018-09-30T00:18:16.565Z,99.00
2018-09-30T00:20:45.410Z,99.10
2018-09-30T00:23:14.180Z,99.30
2018-09-30T00:25:48.729Z,99.40
2018-09-30T00:28:17.740Z,99.40
2018-09-30T00:30:46.731Z,99.50
2018-09-30T00:33:15.709Z,99.30
2018-09-30T00:35:44.515Z,99.00
2018-09-30T00:38:13.373Z,98.80
2018-09-30T00:40:42.220Z,98.90
2018-09-30T00:43:11.079Z,99.20
2018-09-30T00:45:39.944Z,99.00
2018-09-30T00:48:08.886Z,99.20
2018-09-30T00:50:37.726Z,99.30
2018-09-30T00:53:06.634Z,99.50
2018-09-30T00:55:35.469Z,99.50
2018-09-30T00:58:04.225Z,99.60
2018-09-30T01:00:32.943Z,99.60
2018-09-30T01:03:01.708Z,99.60
2018-09-30T01:05:30.685Z,99.90
2018-09-30T01:07:59.440Z,99.90
2018-09-30T01:10:28.214Z,99.90
2018-09-30T01:12:57.037Z,99.90
2018-09-30T01:15:25.787Z,99.90
2018-09-30T01:17:54.942Z,99.90
2018-09-30T01:20:23.729Z,99.90
2018-09-30T01:22:52.544Z,99.90
2018-09-30T01:25:21.266Z,99.90
2018-09-30T01:27:50.009Z,99.90
2018-09-30T01:30:18.761Z,99.90
2018-09-30T01:32:47.559Z,99.90
2018-09-30T01:35:16.259Z,99.90
2018-09-30T01:37:45.199Z,99.90
2018-09-30T01:40:13.941Z,99.90
2018-09-30T01:42:42.666Z,99.90
2018-09-30T01:45:11.423Z,99.90
2018-09-30T01:47:40.239Z,99.90
2018-09-30T01:50:09.212Z,99.90
2018-09-30T01:52:51.301Z,99.90
2018-09-30T01:55:20.382Z,99.90
2018-09-30T01:57:49.115Z,99.90
2018-09-30T02:00:18.715Z,99.90
2018-09-30T02:02:47.949Z,99.90
2018-09-30T02:05:17.232Z,99.90
2018-09-30T02:07:47.311Z,99.90
2018-09-30T02:10:16.341Z,99.90
2018-09-30T02:12:45.163Z,99.90
2018-09-30T02:15:14.170Z,99.90
2018-09-30T02:17:49.506Z,99.90
2018-09-30T02:20:18.242Z,99.90
2018-09-30T02:22:46.859Z,99.90
2018-09-30T02:25:15.652Z,99.90
2018-09-30T02:27:44.377Z,99.90
2018-09-30T02:30:13.234Z,99.90
2018-09-30T02:32:41.927Z,99.90
2018-09-30T02:35:11.197Z,99.90
2018-09-30T02:37:40.050Z,99.90
2018-09-30T02:40:09.088Z,99.90
2018-09-30T02:42:37.805Z,99.90
2018-09-30T02:45:06.619Z,99.90
2018-09-30T02:47:35.368Z,99.90
2018-09-30T02:50:04.385Z,99.90
2018-09-30T02:52:33.189Z,99.90
2018-09-30T02:55:02.043Z,99.90
2018-09-30T02:57:31.765Z,99.90
2018-09-30T03:00:00.569Z,99.90
2018-09-30T03:02:29.331Z,99.90
2018-09-30T03:04:58.232Z,99.90
2018-09-30T03:07:32.425Z,99.90
2018-09-30T03:10:01.202Z,99.90
2018-09-30T03:12:29.935Z,99.90
2018-09-30T03:14:58.777Z,99.90
2018-09-30T03:17:27.524Z,99.90
2018-09-30T03:19:56.347Z,99.90
2018-09-30T03:22:25.120Z,99.90
2018-09-30T03:24:53.970Z,99.90
2018-09-30T03:27:22.763Z,99.90
2018-09-30T03:29:51.580Z,99.90
2018-09-30T03:32:20.555Z,99.90
2018-09-30T03:34:49.415Z,99.90
2018-09-30T03:37:18.227Z,99.90
2018-09-30T03:39:46.956Z,99.90
2018-09-30T03:42:15.677Z,99.90
2018-09-30T03:44:44.593Z,99.90
2018-09-30T03:47:13.328Z,99.90
2018-09-30T03:49:42.206Z,99.90
2018-09-30T03:52:10.985Z,99.90
2018-09-30T03:54:39.759Z,99.90
2018-09-30T03:57:08.587Z,99.90
2018-09-30T03:59:37.311Z,99.90
2018-09-30T04:02:06.226Z,99.90
2018-09-30T04:04:34.987Z,99.90
2018-09-30T04:07:03.738Z,99.90
2018-09-30T04:09:32.467Z,99.90
2018-09-30T04:12:01.183Z,99.90
2018-09-30T04:14:29.921Z,99.90
2018-09-30T04:16:58.777Z,99.90
2018-09-30T04:19:27.540Z,99.90
2018-09-30T04:21:56.559Z,99.90
2018-09-30T04:24:25.385Z,99.90
2018-09-30T04:26:54.219Z,99.90
2018-09-30T04:29:23.911Z,99.90
2018-09-30T04:31:52.706Z,99.90
2018-09-30T04:34:21.443Z,99.90
2018-09-30T04:36:50.391Z,99.90
2018-09-30T04:39:19.083Z,99.90
2018-09-30T04:41:47.768Z,99.90
2018-09-30T04:44:16.506Z,99.90
2018-09-30T04:46:45.383Z,99.90
2018-09-30T04:49:14.134Z,99.90
2018-09-30T04:51:42.929Z,99.90
2018-09-30T04:54:11.626Z,99.90
2018-09-30T04:56:40.373Z,99.90
2018-09-30T04:59:09.326Z,99.90
2018-09-30T05:01:38.335Z,99.90
2018-09-30T05:04:07.116Z,99.90
2018-09-30T05:06:35.903Z,99.90
2018-09-30T05:09:05.846Z,99.90
2018-09-30T05:11:34.608Z,99.90
2018-09-30T05:14:03.463Z,99.90
2018-09-30T05:16:32.304Z,99.90
2018-09-30T05:19:01.160Z,99.90
2018-09-30T05:21:29.970Z,99.90
2018-09-30T05:23:58.772Z,99.90
2018-09-30T05:26:27.667Z,99.90
2018-09-30T05:28:56.500Z,99.90
2018-09-30T05:31:25.252Z,99.90
2018-09-30T05:33:54.133Z,99.90
2018-09-30T05:36:23.021Z,99.90
2018-09-30T05:38:51.802Z,99.90
2018-09-30T05:41:20.579Z,99.90
2018-09-30T05:43:49.333Z,99.90
2018-09-30T05:46:18.131Z,99.90
2018-09-30T05:48:46.860Z,99.90
2018-09-30T05:51:15.726Z,99.90
2018-09-30T05:53:44.495Z,99.90
2018-09-30T05:56:13.201Z,99.90
2018-09-30T05:58:41.948Z,99.90
2018-09-30T06:01:11.840Z,99.90
2018-09-30T06:03:40.610Z,99.90
2018-09-30T06:06:09.357Z,99.90
2018-09-30T06:08:38.047Z,99.90
2018-09-30T06:11:07.188Z,99.90
2018-09-30T06:13:36.099Z,99.90
2018-09-30T06:16:04.972Z,99.90
2018-09-30T06:18:34.227Z,99.90
2018-09-30T06:21:03.063Z,99.90
2018-09-30T06:23:32.168Z,99.90
2018-09-30T06:26:00.970Z,99.90
2018-09-30T06:28:30.671Z,99.90
2018-09-30T06:30:59.420Z,99.90
2018-09-30T06:33:28.162Z,99.90
2018-09-30T06:35:56.886Z,99.90
2018-09-30T06:38:25.623Z,99.90
2018-09-30T06:40:54.562Z,99.90
2018-09-30T06:43:23.347Z,99.90
2018-09-30T06:45:52.122Z,99.90
2018-09-30T06:48:20.947Z,99.90
2018-09-30T06:50:49.768Z,99.90
2018-09-30T06:53:18.477Z,99.90
2018-09-30T06:55:47.523Z,99.90
2018-09-30T06:58:16.353Z,99.90
2018-09-30T07:00:45.166Z,99.90
2018-09-30T07:03:13.968Z,99.90
2018-09-30T07:05:42.758Z,99.90
2018-09-30T07:08:11.738Z,99.90
2018-09-30T07:10:40.510Z,99.90
2018-09-30T07:13:09.298Z,99.90
2018-09-30T07:15:38.096Z,99.90
2018-09-30T07:18:07.286Z,99.90
2018-09-30T07:20:36.031Z,99.90
2018-09-30T07:23:04.851Z,99.90
2018-09-30T07:25:33.638Z,99.90
2018-09-30T07:28:02.544Z,99.90
2018-09-30T07:30:31.616Z,99.80
2018-09-30T07:33:00.707Z,99.90
2018-09-30T07:35:29.609Z,99.30
2018-09-30T07:37:58.617Z,98.60
2018-09-30T07:40:27.390Z,98.20
2018-09-30T07:42:56.185Z,97.70
2018-09-30T07:45:24.931Z,97.60
2018-09-30T07:47:53.697Z,97.30
2018-09-30T07:50:22.448Z,97.20
2018-09-30T07:52:51.248Z,97.00
2018-09-30T07:55:20.203Z,96.70
2018-09-30T07:57:49.066Z,96.60
2018-09-30T08:00:17.911Z,96.30
2018-09-30T08:02:46.659Z,96.20
2018-09-30T08:05:15.627Z,96.10
2018-09-30T08:07:44.437Z,95.90
2018-09-30T08:10:13.144Z,95.80
2018-09-30T08:12:41.962Z,95.60
2018-09-30T08:15:10.946Z,95.40
2018-09-30T08:17:39.755Z,95.30
2018-09-30T08:20:08.570Z,95.10
2018-09-30T08:22:37.485Z,94.60
2018-09-30T08:25:06.650Z,94.70
2018-09-30T08:27:35.583Z,93.90
2018-09-30T08:30:05.372Z,93.40
2018-09-30T08:32:34.231Z,92.80
2018-09-30T08:35:03.045Z,92.80
2018-09-30T08:37:37.059Z,91.80
2018-09-30T08:40:05.949Z,91.80
2018-09-30T08:42:34.632Z,91.00
2018-09-30T08:45:03.732Z,90.50
2018-09-30T08:47:32.582Z,90.20
2018-09-30T08:50:02.329Z,89.90
2018-09-30T08:52:31.093Z,89.90
2018-09-30T08:54:59.940Z,87.90
2018-09-30T08:57:28.826Z,87.40
2018-09-30T08:59:57.579Z,87.40
2018-09-30T09:02:26.542Z,85.40
2018-09-30T09:04:55.383Z,85.40
2018-09-30T09:07:24.208Z,87.90
2018-09-30T09:09:53.148Z,83.50
2018-09-30T09:12:21.900Z,81.30
2018-09-30T09:14:50.847Z,81.40
2018-09-30T09:17:19.643Z,79.00
2018-09-30T09:19:48.543Z,77.50
2018-09-30T09:22:17.358Z,76.40
2018-09-30T09:24:47.143Z,76.10
2018-09-30T09:27:15.875Z,75.40
2018-09-30T09:29:44.674Z,76.30
2018-09-30T09:32:13.580Z,77.40
2018-09-30T09:34:42.642Z,76.50
2018-09-30T09:37:11.479Z,75.40
2018-09-30T09:39:40.226Z,73.50
2018-09-30T09:42:08.983Z,72.50
2018-09-30T09:44:38.004Z,73.20
2018-09-30T09:47:06.894Z,73.90
2018-09-30T09:49:35.748Z,71.40
2018-09-30T09:52:04.941Z,69.20
2018-09-30T09:54:33.989Z,67.60
2018-09-30T09:57:02.835Z,64.30
2018-09-30T09:59:32.067Z,62.60
2018-09-30T10:02:01.266Z,63.00
2018-09-30T10:04:30.510Z,59.30
2018-09-30T10:06:59.566Z,57.60
2018-09-30T10:09:28.573Z,56.70
2018-09-30T10:11:57.714Z,56.00
2018-09-30T10:14:26.841Z,54.40
2018-09-30T10:16:56.066Z,53.50
2018-09-30T10:19:25.126Z,52.10
2018-09-30T10:21:54.143Z,49.80
2018-09-30T10:24:23.928Z,49.50
2018-09-30T10:26:52.971Z,47.70
2018-09-30T10:29:22.900Z,47.40
2018-09-30T10:31:51.818Z,47.00
2018-09-30T10:34:20.838Z,46.00
2018-09-30T10:36:49.598Z,44.80
2018-09-30T10:39:18.483Z,44.20
2018-09-30T10:41:47.425Z,44.10
2018-09-30T10:44:16.291Z,43.40
2018-09-30T10:46:45.339Z,43.60
2018-09-30T10:49:14.502Z,43.00
2018-09-30T10:51:43.629Z,42.80
2018-09-30T10:54:12.504Z,41.50
2018-09-30T10:56:41.621Z,40.50
2018-09-30T10:59:10.582Z,40.30
2018-09-30T11:01:39.268Z,40.00
2018-09-30T11:04:08.328Z,40.00
2018-09-30T11:06:37.324Z,39.90
2018-09-30T11:09:07.368Z,39.30
2018-09-30T11:11:37.000Z,37.70
2018-09-30T11:14:05.857Z,36.40
2018-09-30T11:16:34.692Z,36.30
2018-09-30T11:19:03.557Z,35.90
2018-09-30T11:21:32.501Z,36.50
2018-09-30T11:24:01.350Z,35.70
2018-09-30T11:26:30.189Z,35.30
2018-09-30T11:28:59.010Z,34.10
2018-09-30T11:31:27.981Z,34.00
2018-09-30T11:33:57.036Z,33.50
2018-09-30T11:36:25.950Z,32.80
2018-09-30T11:38:54.979Z,33.10
2018-09-30T11:41:24.001Z,32.80
2018-09-30T11:43:52.786Z,32.90
2018-09-30T11:46:21.908Z,32.90
2018-09-30T11:48:50.789Z,33.50
2018-09-30T11:51:19.589Z,32.80
2018-09-30T11:53:48.443Z,32.30
2018-09-30T11:56:17.234Z,31.70
2018-09-30T11:58:46.100Z,31.40
2018-09-30T12:01:15.106Z,32.20
2018-09-30T12:03:44.089Z,31.60
2018-09-30T12:06:12.861Z,30.50
2018-09-30T12:08:41.865Z,30.90
2018-09-30T12:11:10.738Z,31.40
2018-09-30T12:13:39.709Z,30.10
2018-09-30T12:16:08.548Z,29.70
2018-09-30T12:18:37.480Z,29.50
2018-09-30T12:21:06.429Z,29.50
2018-09-30T12:23:35.367Z,29.10
2018-09-30T12:26:04.365Z,28.80
2018-09-30T12:28:33.169Z,28.80
2018-09-30T12:31:02.012Z,28.40
2018-09-30T12:33:30.964Z,28.20
2018-09-30T12:36:00.012Z,28.80
2018-09-30T12:38:28.806Z,29.00
2018-09-30T12:40:57.812Z,28.90
2018-09-30T12:43:26.692Z,28.00
2018-09-30T12:45:55.716Z,27.80
2018-09-30T12:48:24.561Z,27.60
2018-09-30T12:50:53.507Z,28.30
2018-09-30T12:53:22.370Z,28.10
2018-09-30T12:55:51.280Z,28.10
2018-09-30T12:58:20.122Z,28.00
2018-09-30T13:00:48.947Z,27.80
2018-09-30T13:03:17.742Z,28.00
2018-09-30T13:05:46.637Z,27.30
2018-09-30T13:08:15.469Z,27.30
2018-09-30T13:10:45.190Z,27.50
2018-09-30T13:13:14.194Z,27.00
2018-09-30T13:15:43.066Z,26.80
2018-09-30T13:18:12.208Z,27.20
2018-09-30T13:20:41.016Z,27.00
2018-09-30T13:23:09.905Z,26.80
2018-09-30T13:25:38.805Z,27.50
2018-09-30T13:28:07.738Z,27.90
2018-09-30T13:30:36.672Z,28.10
2018-09-30T13:33:05.523Z,28.30
2018-09-30T13:35:34.664Z,28.10
2018-09-30T13:38:03.654Z,28.30
2018-09-30T13:40:32.581Z,28.00
2018-09-30T13:43:01.329Z,28.60
2018-09-30T13:45:30.374Z,28.40
2018-09-30T13:47:59.188Z,28.70
2018-09-30T13:50:28.006Z,28.50
2018-09-30T13:52:57.003Z,28.40
2018-09-30T13:55:32.965Z,28.20
2018-09-30T13:58:09.434Z,28.60
2018-09-30T14:00:41.166Z,28.70
2018-09-30T14:03:10.081Z,29.10
2018-09-30T14:05:38.888Z,28.90
2018-09-30T14:08:07.900Z,28.90
2018-09-30T14:10:36.748Z,29.00
2018-09-30T14:13:05.908Z,28.40
2018-09-30T14:15:34.949Z,27.90
2018-09-30T14:18:03.773Z,27.80
2018-09-30T14:20:32.628Z,27.50
2018-09-30T14:23:01.513Z,27.40
2018-09-30T14:25:30.496Z,27.10
2018-09-30T14:27:59.293Z,26.90
2018-09-30T14:30:28.271Z,26.80
2018-09-30T14:32:57.068Z,26.90
2018-09-30T14:35:25.912Z,27.00
2018-09-30T14:37:54.647Z,26.90
2018-09-30T14:40:23.445Z,26.70
2018-09-30T14:42:52.149Z,27.60
2018-09-30T14:45:20.923Z,28.50
2018-09-30T14:47:49.637Z,29.90
2018-09-30T14:50:18.623Z,30.50
2018-09-30T14:52:47.542Z,31.30
2018-09-30T14:55:16.385Z,30.70
2018-09-30T14:57:45.169Z,30.70
2018-09-30T15:00:14.257Z,31.30
2018-09-30T15:02:42.961Z,31.50
2018-09-30T15:05:11.759Z,31.20
2018-09-30T15:07:40.536Z,31.40
2018-09-30T15:10:09.369Z,32.20
2018-09-30T15:12:38.102Z,32.10
2018-09-30T15:15:08.427Z,31.80
2018-09-30T15:17:37.510Z,32.20
2018-09-30T15:20:06.342Z,32.20
2018-09-30T15:22:35.392Z,33.40
2018-09-30T15:25:04.363Z,33.50
2018-09-30T15:27:33.088Z,33.70
2018-09-30T15:30:02.004Z,33.70
2018-09-30T15:32:30.988Z,34.50
2018-09-30T15:34:59.782Z,35.10
2018-09-30T15:37:28.665Z,34.90
2018-09-30T15:39:57.824Z,34.70
2018-09-30T15:42:26.704Z,34.70
2018-09-30T15:44:55.580Z,35.00
2018-09-30T15:47:24.420Z,35.50
2018-09-30T15:49:53.304Z,35.60
2018-09-30T15:52:22.162Z,35.30
2018-09-30T15:54:51.005Z,35.70
2018-09-30T15:57:19.788Z,36.00
2018-09-30T15:59:48.642Z,36.20
2018-09-30T16:02:17.422Z,36.70
2018-09-30T16:04:46.989Z,37.40
2018-09-30T16:07:16.649Z,37.70
2018-09-30T16:09:46.199Z,38.20
2018-09-30T16:12:15.443Z,38.70
2018-09-30T16:14:45.817Z,38.50
2018-09-30T16:17:15.075Z,38.20
2018-09-30T16:19:44.166Z,39.00
2018-09-30T16:22:13.764Z,39.00
2018-09-30T16:24:42.819Z,39.30
2018-09-30T16:27:13.129Z,39.80
2018-09-30T16:29:43.417Z,39.70
2018-09-30T16:32:14.326Z,39.60
2018-09-30T16:34:45.513Z,39.60
2018-09-30T16:37:18.560Z,39.80
2018-09-30T16:39:49.053Z,39.60
2018-09-30T16:42:18.844Z,39.40
2018-09-30T16:44:50.981Z,39.30
2018-09-30T16:47:22.351Z,39.60
2018-09-30T16:50:02.464Z,39.50
2018-09-30T16:52:33.630Z,39.90
2018-09-30T16:55:04.362Z,40.90
2018-09-30T16:57:35.591Z,41.60
2018-09-30T17:00:10.638Z,42.70
2018-09-30T17:02:41.002Z,43.60
2018-09-30T17:05:14.410Z,43.50
2018-09-30T17:07:43.225Z,43.70
2018-09-30T17:10:12.267Z,43.90
2018-09-30T17:12:41.120Z,44.00
2018-09-30T17:15:10.128Z,44.60
2018-09-30T17:17:38.930Z,44.90
2018-09-30T17:20:07.770Z,45.00
2018-09-30T17:22:38.438Z,45.50
2018-09-30T17:25:07.312Z,45.80
2018-09-30T17:27:36.184Z,46.20
2018-09-30T17:30:05.190Z,46.50
2018-09-30T17:32:34.000Z,47.10
2018-09-30T17:35:02.875Z,47.70
2018-09-30T17:37:31.773Z,48.50
2018-09-30T17:40:00.660Z,49.80
2018-09-30T17:42:29.526Z,51.00
2018-09-30T17:44:58.470Z,52.00
2018-09-30T17:47:27.737Z,53.00
2018-09-30T17:49:57.113Z,53.60
2018-09-30T17:52:26.426Z,54.60
2018-09-30T17:54:55.666Z,55.30
2018-09-30T17:57:24.947Z,56.10
2018-09-30T17:59:53.924Z,56.90
2018-09-30T18:02:23.264Z,58.00
2018-09-30T18:04:52.578Z,59.10
2018-09-30T18:07:21.903Z,59.90
2018-09-30T18:09:51.080Z,61.00
2018-09-30T18:12:20.527Z,62.60
2018-09-30T18:14:50.007Z,63.90
2018-09-30T18:17:19.453Z,64.90
2018-09-30T18:19:48.791Z,65.80
2018-09-30T18:22:18.350Z,66.30
2018-09-30T18:24:47.632Z,66.80
2018-09-30T18:27:16.530Z,67.70
2018-09-30T18:29:45.811Z,68.30
2018-09-30T18:32:14.666Z,69.30
2018-09-30T18:34:44.079Z,69.90
2018-09-30T18:37:13.347Z,70.50
2018-09-30T18:39:42.807Z,71.30
2018-09-30T18:42:12.256Z,72.10
2018-09-30T18:44:41.531Z,72.80
2018-09-30T18:47:10.868Z,73.10
2018-09-30T18:49:40.025Z,73.60
2018-09-30T18:52:09.737Z,73.80
2018-09-30T18:54:39.781Z,73.90
2018-09-30T18:57:08.759Z,74.10
2018-09-30T18:59:37.781Z,74.20
2018-09-30T19:02:07.079Z,74.50
2018-09-30T19:04:35.951Z,74.30
2018-09-30T19:07:04.910Z,73.80
2018-09-30T19:09:33.812Z,74.10
2018-09-30T19:12:02.599Z,73.60
2018-09-30T19:14:31.453Z,73.40
2018-09-30T19:17:00.172Z,73.60
2018-09-30T19:19:28.990Z,73.90
2018-09-30T19:21:57.903Z,72.90
2018-09-30T19:24:27.095Z,73.00
2018-09-30T19:26:56.332Z,72.30
2018-09-30T19:29:25.658Z,72.20
2018-09-30T19:31:54.823Z,71.30
2018-09-30T19:34:23.669Z,70.90
2018-09-30T19:36:52.897Z,70.90
2018-09-30T19:39:21.749Z,70.20
2018-09-30T19:41:50.574Z,69.90
2018-09-30T19:44:19.559Z,69.70
2018-09-30T19:46:48.347Z,70.20
2018-09-30T19:49:17.840Z,70.50
2018-09-30T19:51:46.609Z,70.80
2018-09-30T19:54:15.927Z,70.80
2018-09-30T19:56:45.043Z,71.30
2018-09-30T19:59:14.324Z,71.50
2018-09-30T20:01:43.672Z,71.90
2018-09-30T20:04:13.309Z,72.00
2018-09-30T20:06:42.460Z,72.60
2018-09-30T20:09:11.507Z,73.50
2018-09-30T20:11:40.509Z,73.70
2018-09-30T20:14:09.526Z,75.20
2018-09-30T20:16:38.274Z,76.60
2018-09-30T20:19:07.187Z,77.50
2018-09-30T20:21:35.966Z,79.00
2018-09-30T20:24:04.993Z,80.90
2018-09-30T20:26:34.180Z,80.30
2018-09-30T20:29:03.321Z,82.60
2018-09-30T20:31:32.371Z,83.60
2018-09-30T20:34:01.272Z,84.10
2018-09-30T20:36:30.071Z,85.20
2018-09-30T20:38:59.078Z,84.50
2018-09-30T20:41:27.838Z,86.70
2018-09-30T20:43:56.631Z,87.00
2018-09-30T20:46:25.461Z,86.80
2018-09-30T20:48:54.294Z,87.30
2018-09-30T20:51:23.060Z,88.10
2018-09-30T20:53:51.798Z,88.80
2018-09-30T20:56:20.644Z,90.30
2018-09-30T20:58:49.453Z,90.40
2018-09-30T21:01:19.795Z,90.90
2018-09-30T21:03:48.836Z,91.50
2018-09-30T21:06:23.680Z,91.70
2018-09-30T21:08:52.710Z,91.90
2018-09-30T21:11:21.660Z,92.00
2018-09-30T21:13:50.399Z,92.10
2018-09-30T21:16:19.386Z,91.90
2018-09-30T21:18:48.305Z,91.90
2018-09-30T21:21:17.007Z,91.50
2018-09-30T21:23:45.861Z,91.70
2018-09-30T21:26:14.650Z,92.10
2018-09-30T21:28:43.444Z,92.40
2018-09-30T21:31:12.331Z,92.30
2018-09-30T21:33:41.427Z,92.30
2018-09-30T21:36:10.185Z,92.00
2018-09-30T21:38:38.919Z,92.20
2018-09-30T21:41:14.620Z,92.60
2018-09-30T21:43:43.338Z,92.40
2018-09-30T21:46:12.245Z,92.50
2018-09-30T21:48:41.035Z,92.60
2018-09-30T21:51:09.810Z,92.60
2018-09-30T21:53:38.702Z,92.70
2018-09-30T21:56:07.533Z,93.10
2018-09-30T21:58:36.399Z,93.40
2018-09-30T22:01:05.873Z,93.60
2018-09-30T22:03:34.658Z,93.80
2018-09-30T22:06:03.423Z,94.00
2018-09-30T22:08:32.190Z,94.10
2018-09-30T22:11:01.047Z,94.40
2018-09-30T22:13:29.958Z,94.60
2018-09-30T22:15:58.729Z,94.80
2018-09-30T22:18:27.510Z,94.80
2018-09-30T22:20:57.214Z,94.60
2018-09-30T22:23:26.071Z,94.20
2018-09-30T22:25:54.870Z,94.10
2018-09-30T22:28:23.588Z,94.30
2018-09-30T22:30:52.525Z,94.10
2018-09-30T22:33:21.346Z,93.90
2018-09-30T22:35:50.136Z,94.00
2018-09-30T22:38:18.850Z,94.00
2018-09-30T22:40:47.642Z,94.10
2018-09-30T22:43:16.390Z,94.10
2018-09-30T22:45:45.189Z,94.10
2018-09-30T22:48:14.008Z,94.30
2018-09-30T22:50:42.797Z,94.40
2018-09-30T22:53:11.637Z,94.40
2018-09-30T22:55:40.406Z,94.40
2018-09-30T22:58:09.181Z,94.50
2018-09-30T23:00:37.973Z,94.70
2018-09-30T23:03:06.838Z,94.70
2018-09-30T23:05:35.809Z,94.50
2018-09-30T23:08:04.628Z,94.60
2018-09-30T23:10:33.397Z,94.70
2018-09-30T23:13:02.155Z,95.00
2018-09-30T23:15:30.936Z,95.00
2018-09-30T23:17:59.689Z,95.00
2018-09-30T23:20:28.511Z,94.80
2018-09-30T23:22:57.495Z,95.10
2018-09-30T23:25:26.296Z,95.00
2018-09-30T23:27:55.042Z,95.00
2018-09-30T23:30:24.838Z,94.90
2018-09-30T23:32:53.551Z,95.00
2018-09-30T23:35:22.289Z,95.00
2018-09-30T23:37:51.106Z,94.90
2018-09-30T23:40:19.864Z,94.90
2018-09-30T23:42:48.784Z,94.80
2018-09-30T23:45:17.692Z,94.90
2018-09-30T23:47:46.520Z,94.90
2018-09-30T23:50:15.243Z,95.00
2018-09-30T23:52:43.958Z,94.80
2018-09-30T23:55:12.674Z,95.00
2018-09-30T23:57:41.469Z,94.90
